Terminal Aerodrome Forecast
Issued by NWS

Home | Current Version | Previous Version | Text Only | Print | Product List | Glossary On
Versions: 1 2 3 4 5 6 7 8 9 10 11 12 13 14 15
005
FTUS42 TJSJ 280540
TAFJBQ
TAF
TJBQ 280540Z 2806/2906 10005KT P6SM FEW060
     FM281300 08010KT P6SM FEW030 SCT050
     FM281630 08012KT P6SM VCTS SCT025CB BKN050
     FM282300 10005KT P6SM SCT060
      AMD NOT SKED TIL 281100=

USA.gov is the U.S. government's official web portal to all federal, state and local government web resources and services.